Time;durP1;ratioP1;P1;durP2;ratioP2;P2;SDS_P1;SDS_P2;PMS_P1;PMS_P2;Temp;Humidity;BMP_temperature;BMP_pressure;BME280_temperature;BME280_humidity;BME280_pressure;Samples;Min_cycle;Max_cycle;Signal;HPM_P1;HPM_P2
2023/02/18 00:01:23;;;;;;;4.67;3.23;;;11.00;99.90;;;11.40;100.00;99007.69;5005971;28;20558;-79
2023/02/18 00:03:54;;;;;;;3.33;3.03;;;11.00;99.90;;;11.40;100.00;99007.69;5007304;28;21193;-78
2023/02/18 00:06:26;;;;;;;4.50;2.87;;;11.10;99.90;;;11.39;100.00;99008.66;5006912;28;20467;-79
2023/02/18 00:08:57;;;;;;;4.37;3.40;;;11.00;99.90;;;11.40;100.00;99004.25;5006866;28;20459;-79
2023/02/18 00:11:29;;;;;;;3.67;3.37;;;11.00;99.90;;;11.37;100.00;99002.78;5005858;28;20562;-79
2023/02/18 00:14:02;;;;;;;3.70;3.10;;;10.90;99.90;;;11.38;100.00;99004.44;5005306;28;20549;-79
2023/02/18 00:16:32;;;;;;;3.87;3.37;;;11.00;99.90;;;11.38;100.00;99003.59;5005705;28;20547;-79
2023/02/18 00:19:05;;;;;;;3.80;3.40;;;11.00;99.90;;;11.39;100.00;98999.97;5005925;28;20469;-79
2023/02/18 00:21:36;;;;;;;4.80;3.57;;;11.00;99.90;;;11.36;100.00;98993.28;5006310;28;20478;-79
2023/02/18 00:24:08;;;;;;;3.50;3.20;;;10.90;99.90;;;11.34;100.00;98997.88;5005700;28;20533;-79
2023/02/18 00:26:38;;;;;;;4.73;3.40;;;10.90;99.90;;;11.36;100.00;98998.53;5004570;28;21091;-79
2023/02/18 00:29:09;;;;;;;4.30;3.33;;;11.00;99.90;;;11.34;100.00;98992.66;5006035;28;20463;-79
2023/02/18 00:31:41;;;;;;;3.40;3.10;;;10.90;99.90;;;11.32;100.00;98997.22;5004858;28;20588;-79
2023/02/18 00:34:12;;;;;;;4.13;3.70;;;10.90;99.90;;;11.33;100.00;98998.03;5004613;28;21071;-79
2023/02/18 00:36:42;;;;;;;4.07;3.63;;;10.90;99.90;;;11.33;100.00;98992.81;5005400;28;20503;-79
2023/02/18 00:39:13;;;;;;;3.83;3.17;;;10.90;99.90;;;11.30;100.00;99001.81;5006611;28;20467;-79
2023/02/18 00:41:43;;;;;;;4.67;3.50;;;10.90;99.90;;;11.28;100.00;98998.53;5004228;28;20993;-79
2023/02/18 00:44:14;;;;;;;3.33;3.03;;;10.80;99.90;;;11.25;100.00;98996.25;5005957;28;20478;-79
2023/02/18 00:46:46;;;;;;;4.80;3.43;;;10.90;99.90;;;11.27;100.00;98996.94;5005644;28;20474;-79
2023/02/18 00:49:16;;;;;;;3.80;3.00;;;10.80;99.90;;;11.28;100.00;99003.00;5005294;28;20521;-79
2023/02/18 00:51:46;;;;;;;3.20;2.90;;;10.90;99.90;;;11.25;100.00;99008.53;5005560;28;20510;-79
2023/02/18 00:54:15;;;;;;;2.97;2.77;;;10.80;99.90;;;11.24;100.00;99001.69;5006108;28;20502;-79
2023/02/18 00:56:45;;;;;;;3.80;3.10;;;10.80;99.90;;;11.25;100.00;99001.50;5003946;28;20463;-79
2023/02/18 00:59:17;;;;;;;4.73;2.60;;;10.80;99.90;;;11.26;100.00;98999.69;5003836;28;20479;-79
2023/02/18 01:01:46;;;;;;;3.30;2.90;;;10.80;99.90;;;11.26;100.00;98997.09;5005707;28;20447;-80
2023/02/18 01:04:16;;;;;;;3.00;2.70;;;10.90;99.90;;;11.25;100.00;98987.59;5004325;28;20471;-79
2023/02/18 01:06:46;;;;;;;5.93;2.57;;;10.90;99.90;;;11.23;100.00;98985.16;5005749;28;20826;-79
2023/02/18 01:09:17;;;;;;;2.53;2.33;;;10.80;99.90;;;11.23;100.00;98984.34;5006324;28;20588;-79
2023/02/18 01:11:47;;;;;;;2.83;2.53;;;10.90;99.90;;;11.19;100.00;98988.25;5005351;28;20525;-79
2023/02/18 01:14:17;;;;;;;2.50;2.30;;;10.80;99.90;;;11.11;100.00;98989.91;5004035;28;20474;-79
2023/02/18 01:16:48;;;;;;;4.27;2.67;;;10.60;99.90;;;11.13;100.00;98984.53;5004916;28;20458;-79
2023/02/18 01:19:18;;;;;;;6.10;2.63;;;10.70;99.90;;;11.15;100.00;99000.06;5004852;28;20455;-79
2023/02/18 01:21:48;;;;;;;3.80;2.77;;;10.70;99.90;;;11.12;100.00;99011.69;5004466;28;20465;-79
2023/02/18 01:24:17;;;;;;;4.40;2.33;;;10.70;99.90;;;11.14;100.00;99001.88;5003966;28;20537;-79
2023/02/18 01:26:47;;;;;;;2.83;2.40;;;10.70;99.90;;;11.13;100.00;99015.13;5004123;28;20862;-79
2023/02/18 01:29:18;;;;;;;3.17;2.00;;;10.70;99.90;;;11.14;100.00;99007.13;5003939;28;20458;-79
2023/02/18 01:31:48;;;;;;;3.33;1.97;;;10.70;99.90;;;11.14;100.00;99007.13;5004880;28;20869;-79
2023/02/18 01:34:18;;;;;;;2.13;1.97;;;10.70;99.90;;;11.14;100.00;99004.50;5004306;28;20474;-79
2023/02/18 01:36:48;;;;;;;2.20;1.87;;;10.70;99.90;;;11.16;100.00;99007.75;5004925;28;20973;-79
2023/02/18 01:39:17;;;;;;;5.17;2.43;;;10.80;99.90;;;11.16;100.00;99010.38;5005166;28;20458;-79
2023/02/18 01:41:48;;;;;;;3.00;2.00;;;10.80;99.90;;;11.12;100.00;98998.59;5004964;28;20506;-79
2023/02/18 01:44:22;;;;;;;2.80;2.37;;;10.70;99.90;;;11.09;100.00;99004.97;5004739;28;20467;-79
2023/02/18 01:46:52;;;;;;;2.00;1.90;;;10.60;99.90;;;11.09;100.00;98993.69;5004657;28;20463;-79
2023/02/18 01:49:29;;;;;;;1.90;1.80;;;10.70;99.90;;;11.08;100.00;98992.03;5004152;28;20546;-79
2023/02/18 01:52:04;;;;;;;5.80;1.77;;;10.70;99.90;;;11.08;100.00;98987.63;5002788;28;20490;-79
2023/02/18 01:54:40;;;;;;;1.83;1.73;;;10.70;99.90;;;11.08;100.00;98986.81;5004949;28;20467;-79
2023/02/18 01:57:14;;;;;;;2.83;2.00;;;10.70;99.90;;;11.07;100.00;98974.72;5005115;28;21000;-79
2023/02/18 01:59:49;;;;;;;2.20;2.00;;;10.60;99.90;;;11.05;100.00;98969.66;5009354;28;20466;-79
2023/02/18 02:02:24;;;;;;;1.90;1.70;;;10.70;99.90;;;11.08;100.00;98968.50;5010497;28;20516;-79
2023/02/18 02:04:54;;;;;;;2.60;1.90;;;10.70;99.90;;;11.04;100.00;98965.38;5010547;28;20469;-79
2023/02/18 02:07:26;;;;;;;2.03;1.73;;;10.70;99.90;;;11.03;100.00;98957.72;5010800;28;21397;-79
2023/02/18 02:09:59;;;;;;;2.70;1.90;;;10.70;99.90;;;11.04;100.00;98948.88;5011707;28;20454;-79
2023/02/18 02:12:49;;;;;;;2.00;1.63;;;10.70;99.90;;;11.02;100.00;98940.38;5010528;28;20544;-79
2023/02/18 02:15:38;;;;;;;1.60;1.50;;;10.60;99.90;;;11.01;100.00;98930.88;5010854;28;20466;-79
2023/02/18 02:18:34;;;;;;;6.00;1.43;;;10.60;99.90;;;10.96;100.00;98934.03;5011051;28;20485;-79
2023/02/18 02:21:57;;;;;;;1.97;1.43;;;10.50;99.90;;;10.96;100.00;98914.88;5009940;28;20833;-79
2023/02/18 02:25:15;;;;;;;1.30;1.20;;;10.60;99.90;;;10.97;100.00;98909.47;4992712;28;21036;-79
2023/02/18 02:28:40;;;;;;;1.33;1.23;;;10.60;99.90;;;10.94;100.00;98912.41;5010985;28;20475;-79
2023/02/18 02:31:52;;;;;;;1.40;1.27;;;10.50;99.90;;;10.93;100.00;98908.16;5010613;28;20473;-79
2023/02/18 02:34:55;;;;;;;1.30;1.10;;;10.50;99.90;;;10.91;100.00;98906.72;5003523;28;21518;-79
2023/02/18 02:37:35;;;;;;;1.20;1.10;;;10.50;99.90;;;10.90;100.00;98905.88;5002147;28;20899;-79
2023/02/18 02:40:23;;;;;;;1.10;1.00;;;10.50;99.90;;;10.84;100.00;98911.78;5010554;28;20466;-79
2023/02/18 02:43:12;;;;;;;1.30;1.20;;;10.30;99.90;;;10.80;100.00;98904.44;5012698;28;20977;-79
2023/02/18 02:45:58;;;;;;;1.03;0.93;;;10.30;99.90;;;10.80;100.00;98893.97;5010623;28;20490;-79
2023/02/18 02:48:39;;;;;;;1.33;1.23;;;10.30;99.90;;;10.80;100.00;98893.97;5011384;28;20546;-79
2023/02/18 02:51:16;;;;;;;1.20;1.10;;;10.40;99.90;;;10.79;100.00;98893.19;5012251;28;20516;-79
2023/02/18 02:53:46;;;;;;;1.37;1.27;;;10.30;99.90;;;10.78;100.00;98894.16;5009646;28;20556;-79
2023/02/18 02:56:20;;;;;;;1.27;1.13;;;10.30;99.90;;;10.78;100.00;98882.88;5011624;28;20562;-79
2023/02/18 02:58:58;;;;;;;1.80;1.63;;;10.30;99.90;;;10.76;100.00;98890.09;5010679;28;20533;-79
2023/02/18 03:01:41;;;;;;;1.60;1.50;;;10.40;99.90;;;10.73;100.00;98893.00;5010057;28;20470;-79
2023/02/18 03:05:08;;;;;;;1.50;1.40;;;10.30;99.90;;;10.71;100.00;98915.91;5009679;28;20502;-79
2023/02/18 03:08:26;;;;;;;1.50;1.40;;;10.20;99.90;;;10.71;100.00;98906.28;5010389;28;20469;-79
2023/02/18 03:11:05;;;;;;;1.47;1.37;;;10.30;99.90;;;10.70;100.00;98919.50;5005555;28;20528;-79
2023/02/18 03:13:51;;;;;;;1.53;1.37;;;10.30;99.90;;;10.71;100.00;98910.69;5005804;28;20498;-79
2023/02/18 03:16:32;;;;;;;1.60;1.50;;;10.30;99.90;;;10.72;100.00;98902.69;5008005;28;20468;-79
2023/02/18 03:19:12;;;;;;;1.40;1.30;;;10.30;99.90;;;10.72;100.00;98910.53;5007400;28;20462;-79
2023/02/18 03:21:48;;;;;;;1.50;1.40;;;10.30;99.90;;;10.69;100.00;98903.00;5006068;28;20474;-79
2023/02/18 03:24:26;;;;;;;1.87;1.77;;;10.20;99.90;;;10.69;100.00;98907.44;5007940;28;21093;-79
2023/02/18 03:27:04;;;;;;;1.50;1.40;;;10.30;99.90;;;10.70;100.00;98896.78;5006519;28;21068;-79
2023/02/18 03:29:35;;;;;;;1.73;1.50;;;10.30;99.90;;;10.68;100.00;98897.94;5005647;28;20966;-79
2023/02/18 03:32:11;;;;;;;1.73;1.63;;;10.30;99.90;;;10.69;100.00;98896.97;5006609;28;20522;-79
2023/02/18 03:34:47;;;;;;;1.50;1.40;;;10.30;99.90;;;10.66;100.00;98903.31;5007793;28;20469;-79
2023/02/18 03:37:18;;;;;;;2.07;1.87;;;10.20;99.90;;;10.68;100.00;98890.91;5007480;28;20473;-79
2023/02/18 03:39:57;;;;;;;2.37;1.77;;;10.30;99.90;;;10.68;100.00;98885.69;5006402;28;20554;-79
2023/02/18 03:42:27;;;;;;;1.80;1.70;;;10.30;99.90;;;10.67;100.00;98886.66;5005333;28;20471;-79
2023/02/18 03:44:58;;;;;;;2.70;1.80;;;10.20;99.90;;;10.66;100.00;98886.81;5005332;28;20504;-79
2023/02/18 03:47:28;;;;;;;1.60;1.50;;;10.30;99.90;;;10.62;100.00;98875.06;5007148;28;20550;-79
2023/02/18 03:49:58;;;;;;;1.80;1.70;;;10.20;99.90;;;10.59;100.00;98877.03;5006733;28;21031;-79
2023/02/18 03:52:27;;;;;;;2.27;1.53;;;10.20;99.90;;;10.60;100.00;98878.66;5006456;28;20598;-80
2023/02/18 03:54:59;;;;;;;2.07;1.60;;;10.20;99.90;;;10.62;100.00;98881.09;5006200;28;21558;-79
2023/02/18 03:57:29;;;;;;;1.83;1.60;;;10.20;99.90;;;10.60;100.00;98883.91;5007515;28;20459;-79
2023/02/18 03:59:59;;;;;;;3.70;1.33;;;10.20;99.90;;;10.60;100.00;98883.06;5008188;28;20462;-79
2023/02/18 04:02:29;;;;;;;1.60;1.40;;;10.10;99.90;;;10.62;100.00;98872.47;5006797;28;20471;-79
2023/02/18 04:04:59;;;;;;;1.60;1.30;;;10.10;99.90;;;10.57;100.00;98884.22;5005666;28;20462;-79
2023/02/18 04:07:28;;;;;;;1.50;1.40;;;10.10;99.90;;;10.57;100.00;98884.22;5006336;28;20458;-79
2023/02/18 04:10:00;;;;;;;1.77;1.40;;;10.10;99.90;;;10.59;100.00;98874.41;5002280;28;21094;-79
2023/02/18 04:12:30;;;;;;;2.07;1.50;;;10.20;99.90;;;10.58;100.00;98879.81;5006489;28;20540;-78
2023/02/18 04:15:00;;;;;;;2.50;2.13;;;10.20;99.90;;;10.51;100.00;98879.66;5002450;28;20475;-79
2023/02/18 04:17:30;;;;;;;2.10;1.43;;;10.10;99.90;;;10.50;100.00;98851.06;5003905;28;20526;-79
2023/02/18 04:19:59;;;;;;;2.33;1.80;;;10.00;99.90;;;10.45;100.00;98861.19;5003827;28;20525;-79
2023/02/18 04:22:27;;;;;;;2.30;2.10;;;10.00;99.90;;;10.45;100.00;98859.38;5003605;28;20554;-79
2023/02/18 04:24:59;;;;;;;9.70;5.23;;;10.00;99.90;;;10.46;100.00;98861.03;5001472;28;20579;-80
2023/02/18 04:27:30;;;;;;;2.20;1.80;;;10.00;99.90;;;10.49;100.00;98859.88;5002640;28;20487;-79
2023/02/18 04:29:59;;;;;;;2.37;1.80;;;10.10;99.90;;;10.52;100.00;98865.59;5005842;28;20463;-79
2023/02/18 04:32:29;;;;;;;10.00;4.70;;;10.10;99.90;;;10.47;100.00;98862.69;5000670;28;20502;-75
2023/02/18 04:34:59;;;;;;;4.57;3.23;;;10.10;99.90;;;10.46;100.00;98868.06;5001830;28;20566;-79
2023/02/18 04:37:28;;;;;;;2.47;2.27;;;10.10;99.90;;;10.45;100.00;98859.38;5001706;28;20574;-79
2023/02/18 04:40:00;;;;;;;2.30;2.10;;;10.00;99.90;;;10.44;100.00;98863.00;5005270;28;20554;-79
2023/02/18 04:42:29;;;;;;;4.97;2.70;;;10.00;99.90;;;10.39;100.00;98854.84;5005024;28;20528;-78
2023/02/18 04:44:59;;;;;;;3.27;2.80;;;10.00;99.90;;;10.42;100.00;98869.38;5005295;28;20498;-79
2023/02/18 04:47:29;;;;;;;4.20;3.23;;;10.00;99.90;;;10.40;100.00;98853.88;5005864;28;20501;-78
2023/02/18 04:49:59;;;;;;;3.43;3.07;;;10.00;99.90;;;10.37;100.00;98862.03;5004778;28;20463;-78
2023/02/18 04:52:30;;;;;;;3.67;3.37;;;10.00;99.90;;;10.35;100.00;98874.44;5003736;28;20485;-79
2023/02/18 04:55:01;;;;;;;3.77;3.30;;;9.90;99.90;;;10.38;100.00;98870.66;5004165;28;20514;-78
2023/02/18 04:57:30;;;;;;;3.67;3.10;;;10.00;99.90;;;10.39;100.00;98859.25;5005325;28;20486;-78
2023/02/18 05:00:00;;;;;;;6.10;3.50;;;10.00;99.90;;;10.36;100.00;98855.16;5006346;28;20463;-78
2023/02/18 05:02:31;;;;;;;4.17;3.37;;;9.90;99.90;;;10.34;100.00;98856.31;5005166;28;20488;-79
2023/02/18 05:05:00;;;;;;;7.50;3.97;;;9.90;99.90;;;10.30;100.00;98861.06;5003631;28;20990;-80
2023/02/18 05:07:29;;;;;;;4.60;3.70;;;9.80;99.90;;;10.34;100.00;98854.53;5005475;28;20463;-79
2023/02/18 05:10:01;;;;;;;5.87;3.40;;;10.00;99.90;;;10.37;100.00;98862.03;5006011;28;20953;-79
2023/02/18 05:12:31;;;;;;;6.63;3.30;;;10.00;99.90;;;10.38;100.00;98852.38;5004605;28;20501;-79
2023/02/18 05:15:00;;;;;;;4.60;3.20;;;10.00;99.90;;;10.42;100.00;98870.19;5006353;28;20518;-79
2023/02/18 05:17:29;;;;;;;4.13;3.20;;;10.00;99.90;;;10.39;100.00;98852.22;5005456;28;20599;-79
2023/02/18 05:19:59;;;;;;;9.70;3.60;;;10.00;99.90;;;10.38;100.00;98857.59;5004453;28;20459;-79
2023/02/18 05:22:28;;;;;;;4.33;3.80;;;9.90;99.90;;;10.39;100.00;98841.75;4999005;28;20506;-79
2023/02/18 05:25:00;;;;;;;5.70;3.23;;;10.00;99.90;;;10.36;100.00;98855.16;5002811;28;20547;-79
2023/02/18 05:27:29;;;;;;;5.27;3.53;;;9.90;99.90;;;10.39;100.00;98847.00;5004967;28;21059;-79
2023/02/18 05:30:00;;;;;;;3.80;3.10;;;10.00;99.90;;;10.41;100.00;98852.84;5005731;28;20460;-79
2023/02/18 05:32:30;;;;;;;4.57;3.60;;;10.00;99.90;;;10.40;100.00;98848.63;5001347;28;20982;-79
2023/02/18 05:35:00;;;;;;;18.63;8.63;;;10.00;99.90;;;10.41;100.00;98873.78;4998756;28;21464;-79
2023/02/18 05:37:32;;;;;;;4.33;3.67;;;10.00;99.90;;;10.41;100.00;98868.53;5001780;28;20491;-78
2023/02/18 05:40:02;;;;;;;4.77;3.70;;;10.10;99.90;;;10.38;100.00;98854.97;5003409;28;20553;-78
2023/02/18 05:42:32;;;;;;;7.30;3.30;;;9.90;99.90;;;10.41;100.00;98846.84;5004671;28;20495;-78
2023/02/18 05:45:02;;;;;;;3.37;2.83;;;10.00;99.90;;;10.41;100.00;98852.84;5006486;28;20822;-78
2023/02/18 05:47:32;;;;;;;4.43;3.27;;;10.00;99.90;;;10.38;100.00;98858.41;5005756;28;20545;-79
2023/02/18 05:50:00;;;;;;;6.20;3.30;;;10.00;99.90;;;10.33;100.00;98850.28;5006266;28;20466;-79
2023/02/18 05:52:30;;;;;;;4.00;2.83;;;9.90;99.90;;;10.32;100.00;98843.41;5005529;28;20998;-78
2023/02/18 05:55:02;;;;;;;9.53;3.47;;;9.80;99.90;;;10.39;100.00;98828.69;5006186;28;20494;-78
2023/02/18 05:57:32;;;;;;;3.93;3.30;;;10.00;99.90;;;10.35;100.00;98840.44;5007311;28;20474;-78
2023/02/18 06:00:02;;;;;;;4.83;3.33;;;9.90;99.90;;;10.33;100.00;98812.84;5004884;28;20566;-78
2023/02/18 06:02:32;;;;;;;4.30;2.97;;;9.90;99.90;;;10.33;100.00;98824.13;5005432;28;21055;-79
2023/02/18 06:05:02;;;;;;;7.33;2.97;;;9.90;99.90;;;10.33;100.00;98837.22;5006303;28;20810;-78
2023/02/18 06:07:32;;;;;;;5.23;3.20;;;10.00;99.90;;;10.30;100.00;98821.84;5006586;28;21061;-79
2023/02/18 06:10:03;;;;;;;4.67;3.30;;;9.80;99.90;;;10.32;100.00;98814.66;5005052;28;20471;-79
2023/02/18 06:12:32;;;;;;;4.20;3.20;;;9.80;99.90;;;10.29;100.00;98830.66;5005672;28;20463;-79
2023/02/18 06:15:02;;;;;;;17.13;3.10;;;9.90;99.90;;;10.31;100.00;98807.00;5005642;28;20502;-78
2023/02/18 06:17:31;;;;;;;3.27;2.77;;;9.90;99.90;;;10.24;100.00;98813.88;5006033;28;20470;-78
2023/02/18 06:20:01;;;;;;;5.03;3.30;;;9.70;99.90;;;10.27;100.00;98803.06;5004297;28;20513;-79
2023/02/18 06:22:32;;;;;;;3.83;3.37;;;9.90;99.90;;;10.32;100.00;98806.81;5006062;28;20559;-78
2023/02/18 06:25:03;;;;;;;4.70;3.43;;;9.90;99.90;;;10.31;100.00;98799.94;5005737;28;20525;-79
2023/02/18 06:27:32;;;;;;;3.63;3.33;;;9.80;99.90;;;10.32;100.00;98806.81;5005287;28;20546;-79
2023/02/18 06:30:02;;;;;;;3.10;2.80;;;9.90;99.90;;;10.32;100.00;98800.75;5005451;28;20569;-78
2023/02/18 06:32:31;;;;;;;4.73;3.10;;;9.90;99.90;;;10.27;100.00;98790.00;5004753;28;20982;-78
2023/02/18 06:35:01;;;;;;;3.93;3.53;;;9.80;99.90;;;10.28;100.00;98799.44;5005081;28;21204;-79
2023/02/18 06:37:30;;;;;;;11.13;3.50;;;9.80;99.90;;;10.26;100.00;98806.66;5005846;28;20554;-78
2023/02/18 06:39:59;;;;;;;6.37;3.30;;;9.90;99.90;;;10.31;100.00;98810.41;5005383;28;20467;-78
2023/02/18 06:42:29;;;;;;;6.60;3.07;;;9.90;99.90;;;10.33;100.00;98803.22;5006464;28;20463;-78
2023/02/18 06:45:00;;;;;;;3.33;2.80;;;9.90;99.90;;;10.30;100.00;98806.16;5007160;28;20468;-78
2023/02/18 06:47:31;;;;;;;5.03;3.57;;;9.90;99.90;;;10.23;100.00;98797.38;5010786;28;20868;-78
2023/02/18 06:49:59;;;;;;;5.23;3.77;;;9.70;99.90;;;10.21;100.00;98801.91;5010115;28;20467;-78
2023/02/18 06:52:33;;;;;;;6.90;3.90;;;9.70;99.90;;;10.22;100.00;98800.13;5007989;28;20509;-78
2023/02/18 06:55:02;;;;;;;4.33;3.80;;;9.70;99.90;;;10.25;100.00;98792.78;5009814;28;20568;-78
2023/02/18 06:57:33;;;;;;;7.47;4.00;;;9.80;99.90;;;10.30;100.00;98785.25;5010270;28;20490;-78
2023/02/18 07:00:05;;;;;;;8.73;3.73;;;9.80;99.90;;;10.32;100.00;98791.13;5009227;28;20868;-78
2023/02/18 07:02:35;;;;;;;4.80;4.30;;;9.90;99.90;;;10.30;100.00;98785.25;5010074;28;21001;-78
2023/02/18 07:05:05;;;;;;;10.13;3.80;;;9.90;99.90;;;10.25;100.00;98778.88;5009788;28;20491;-78
2023/02/18 07:07:34;;;;;;;7.63;3.70;;;9.80;99.90;;;10.28;100.00;98787.22;5009876;28;20467;-78
2023/02/18 07:10:05;;;;;;;4.40;3.47;;;9.90;99.90;;;10.29;100.00;98783.63;5009491;28;20466;-78
2023/02/18 07:12:35;;;;;;;3.47;3.10;;;9.90;99.90;;;10.29;100.00;98791.47;5008918;28;20502;-79
2023/02/18 07:15:06;;;;;;;5.03;3.50;;;9.90;99.90;;;10.24;100.00;98783.28;5008033;28;20502;-78
2023/02/18 07:17:35;;;;;;;11.53;3.87;;;9.90;99.90;;;10.25;100.00;98786.72;5009230;28;20525;-78
2023/02/18 07:20:05;;;;;;;4.13;3.60;;;9.80;99.90;;;10.28;100.00;98791.63;5009791;28;20467;-78
2023/02/18 07:22:35;;;;;;;4.90;4.10;;;9.90;99.90;;;10.28;100.00;98781.97;5008910;28;20467;-78
2023/02/18 07:25:04;;;;;;;4.50;3.33;;;9.90;99.90;;;10.25;100.00;98805.84;5008821;28;20515;-78
2023/02/18 07:27:36;;;;;;;3.93;3.53;;;9.80;99.90;;;10.26;100.00;98796.19;5008186;28;20471;-77
2023/02/18 07:30:07;;;;;;;4.40;3.03;;;9.90;99.90;;;10.24;100.00;98804.19;5008649;28;20636;-78
2023/02/18 07:32:37;;;;;;;3.40;3.10;;;9.80;99.90;;;10.26;100.00;98796.19;5009469;28;20486;-78
2023/02/18 07:35:07;;;;;;;4.40;2.47;;;9.90;99.90;;;10.20;100.00;98797.69;5006055;28;20626;-78
2023/02/18 07:37:37;;;;;;;3.97;2.53;;;9.80;99.90;;;10.23;100.00;98784.28;5008768;28;20521;-78
2023/02/18 07:40:10;;;;;;;2.70;2.43;;;9.80;99.90;;;10.25;100.00;98787.53;5008716;28;20499;-78
2023/02/18 07:42:41;;;;;;;2.37;2.10;;;9.90;99.90;;;10.18;100.00;98791.81;5007903;28;20506;-78
2023/02/18 07:45:11;;;;;;;3.00;2.43;;;9.70;99.90;;;10.13;100.00;98789.66;5009059;28;20463;-78
2023/02/18 07:47:41;;;;;;;2.30;2.10;;;9.60;99.90;;;10.15;100.00;98779.06;5008138;28;20957;-78
2023/02/18 07:50:11;;;;;;;1.77;1.40;;;9.60;99.90;;;10.14;100.00;98769.59;5010357;28;20473;-78
2023/02/18 07:52:41;;;;;;;2.90;1.83;;;9.60;99.90;;;10.08;100.00;98778.06;5008944;28;20546;-78
2023/02/18 07:55:11;;;;;;;1.77;1.37;;;9.60;99.90;;;10.08;100.00;98789.34;5008790;28;20498;-83
2023/02/18 08:00:26;;;;;;;2.40;1.77;;;9.70;99.90;;;10.16;100.00;98783.31;5009280;28;20844;-84
2023/02/18 08:02:57;;;;;;;1.57;1.20;;;9.70;99.90;;;10.17;100.00;98781.53;5008167;28;20459;-84
2023/02/18 08:05:27;;;;;;;1.73;1.63;;;9.70;99.90;;;10.23;100.00;98796.53;5008386;28;20455;-84
2023/02/18 08:07:59;;;;;;;3.63;1.53;;;9.80;99.90;;;10.25;100.00;98782.31;5008706;28;20467;-83
2023/02/18 08:10:29;;;;;;;2.00;1.70;;;9.90;99.90;;;10.22;100.00;98790.50;5009220;28;20621;-84
2023/02/18 08:13:00;;;;;;;2.17;1.80;;;9.80;99.90;;;10.20;100.00;98782.00;5007769;28;20462;-84
2023/02/18 08:15:31;;;;;;;4.00;2.07;;;9.70;99.90;;;10.21;100.00;98760.09;5009610;28;22058;-83
2023/02/18 08:18:01;;;;;;;2.13;1.93;;;9.80;99.90;;;10.27;100.00;98761.25;5007105;28;20454;-84
2023/02/18 08:20:31;;;;;;;3.23;2.43;;;9.90;99.90;;;10.23;100.00;98763.38;5007840;28;20459;-83
2023/02/18 08:23:02;;;;;;;2.87;2.37;;;9.80;99.90;;;10.27;100.00;98767.31;5005947;28;20472;-83
2023/02/18 08:25:33;;;;;;;2.47;2.13;;;9.90;99.90;;;10.23;100.00;98779.06;5007572;28;20573;-84
2023/02/18 08:28:06;;;;;;;2.97;2.10;;;9.80;99.90;;;10.22;100.00;98779.22;5006228;28;20451;-83
2023/02/18 08:30:36;;;;;;;2.93;2.00;;;9.80;99.90;;;10.20;100.00;98771.56;5007574;28;21036;-84
2023/02/18 08:33:07;;;;;;;2.20;1.97;;;9.80;99.90;;;10.22;100.00;98782.66;5008091;28;20918;-84
2023/02/18 08:35:36;;;;;;;2.43;2.10;;;9.80;99.90;;;10.27;100.00;98777.75;5007757;28;20499;-83
2023/02/18 08:38:06;;;;;;;2.70;2.30;;;9.80;99.90;;;10.26;100.00;98794.41;5008379;28;20470;-82
2023/02/18 08:40:35;;;;;;;4.87;2.40;;;9.80;99.90;;;10.27;100.00;98788.22;5006571;28;20513;-82
2023/02/18 08:43:07;;;;;;;3.00;2.13;;;9.80;99.90;;;10.27;100.00;98797.84;5007969;28;20933;-82
2023/02/18 08:45:39;;;;;;;4.30;1.93;;;9.70;99.90;;;10.31;100.00;98805.16;5006898;28;20563;-82
2023/02/18 08:48:10;;;;;;;2.20;2.00;;;9.90;99.90;;;10.30;100.00;98793.09;5007310;28;20506;-82
2023/02/18 08:50:48;;;;;;;2.70;2.00;;;9.80;99.90;;;10.32;100.00;98801.56;5008179;28;20466;-81
2023/02/18 08:53:18;;;;;;;4.47;2.30;;;9.90;99.90;;;10.33;100.00;98802.41;5005593;28;20503;-83
2023/02/18 08:55:48;;;;;;;2.03;1.90;;;9.90;99.90;;;10.33;100.00;98808.44;5007021;28;20576;-82
2023/02/18 08:58:20;;;;;;;3.07;2.30;;;10.00;99.90;;;10.34;100.00;98799.63;5006268;28;20466;-82
2023/02/18 09:00:50;;;;;;;5.23;2.50;;;9.90;99.90;;;10.35;100.00;98810.88;5008772;28;20539;-82
2023/02/18 09:03:20;;;;;;;10.80;1.97;;;9.90;99.90;;;10.34;100.00;98807.47;5006216;28;20527;-83
2023/02/18 09:05:49;;;;;;;2.50;2.30;;;9.80;99.90;;;10.39;100.00;98799.09;5005265;28;20986;-82
2023/02/18 09:08:20;;;;;;;2.60;2.20;;;9.90;99.90;;;10.38;100.00;98803.53;5006268;28;20470;-82
2023/02/18 09:10:50;;;;;;;2.27;2.07;;;10.00;99.90;;;10.34;100.00;98797.03;5007566;28;20546;-81
2023/02/18 09:13:21;;;;;;;2.17;1.97;;;9.90;99.90;;;10.37;100.00;98799.28;5009379;28;20463;-82
2023/02/18 09:16:01;;;;;;;1.60;1.50;;;9.90;99.90;;;10.37;100.00;98801.91;5006724;28;20577;-82
2023/02/18 09:18:30;;;;;;;2.40;2.10;;;9.90;99.90;;;10.40;100.00;98809.41;5008093;28;20528;-83
2023/02/18 09:21:00;;;;;;;2.07;1.83;;;9.90;99.90;;;10.37;100.00;98809.75;5007693;28;20529;-82
2023/02/18 09:23:31;;;;;;;3.27;2.00;;;9.90;99.90;;;10.38;100.00;98836.69;5008179;28;20459;-83
2023/02/18 09:26:04;;;;;;;3.13;2.10;;;9.90;99.90;;;10.37;100.00;98811.53;5006618;28;20475;-82
2023/02/18 09:28:37;;;;;;;2.60;1.67;;;9.90;99.90;;;10.40;100.00;98813.81;5007075;28;20474;-82
2023/02/18 09:31:10;;;;;;;3.57;1.77;;;9.90;99.90;;;10.38;100.00;98823.63;5008251;28;20466;-83
2023/02/18 09:33:44;;;;;;;1.90;1.80;;;9.90;99.90;;;10.39;100.00;98802.53;5006946;28;21443;-82
2023/02/18 09:36:15;;;;;;;2.07;1.87;;;9.90;99.90;;;10.43;100.00;98809.06;5007252;28;21028;-83
2023/02/18 09:38:44;;;;;;;3.17;2.00;;;10.00;99.90;;;10.44;100.00;98815.94;5007570;28;20476;-82
2023/02/18 09:41:26;;;;;;;2.67;2.03;;;10.00;99.90;;;10.48;100.00;98791.06;5007476;28;20518;-83
2023/02/18 09:44:02;;;;;;;2.30;1.70;;;10.00;99.90;;;10.46;100.00;98808.75;5006495;28;20477;-82
2023/02/18 09:46:39;;;;;;;2.97;1.93;;;10.00;99.90;;;10.48;100.00;98796.31;5007510;28;20470;-83
2023/02/18 09:49:22;;;;;;;2.83;1.60;;;10.10;99.90;;;10.47;100.00;98818.22;5006395;28;20459;-83
2023/02/18 09:51:54;;;;;;;2.93;1.80;;;10.00;99.90;;;10.52;100.00;98812.47;5006170;28;20470;-83
2023/02/18 09:54:24;;;;;;;3.60;2.30;;;10.10;99.90;;;10.50;100.00;98806.59;5007400;28;20902;-83
2023/02/18 09:56:54;;;;;;;1.60;1.50;;;10.10;99.90;;;10.46;100.00;98837.50;5006286;28;20500;-82
2023/02/18 09:59:27;;;;;;;2.10;1.90;;;10.00;99.90;;;10.44;100.00;98831.63;5005853;28;20458;-83
2023/02/18 10:01:57;;;;;;;2.00;1.80;;;10.00;99.90;;;10.50;100.00;98848.44;5007260;28;20463;-82
2023/02/18 10:04:36;;;;;;;2.20;1.80;;;10.00;99.90;;;10.52;100.00;98836.81;5006333;28;20988;-82
2023/02/18 10:07:05;;;;;;;1.93;1.73;;;10.00;99.90;;;10.56;100.00;98845.16;5006650;28;20471;-83
2023/02/18 10:09:38;;;;;;;2.33;1.30;;;10.10;99.90;;;10.51;100.00;98850.91;5006526;28;20986;-83
2023/02/18 10:12:18;;;;;;;2.80;1.70;;;10.00;99.90;;;10.49;100.00;98855.47;5006796;28;20809;-82
2023/02/18 10:14:52;;;;;;;1.33;1.23;;;10.10;99.90;;;10.49;100.00;98868.53;5006663;28;20490;-82
2023/02/18 10:17:26;;;;;;;4.27;2.00;;;10.10;99.90;;;10.51;100.00;98871.00;5006358;28;20491;-77
2023/02/18 10:19:58;;;;;;;1.60;1.27;;;10.10;99.90;;;10.54;100.00;98863.66;5006242;28;20467;-79
2023/02/18 10:22:30;;;;;;;2.20;1.53;;;10.10;99.90;;;10.57;100.00;98867.72;5009575;28;20455;-79
2023/02/18 10:25:03;;;;;;;6.50;1.20;;;10.20;99.90;;;10.52;100.00;98857.75;5010093;28;20529;-81
2023/02/18 10:27:37;;;;;;;1.60;1.50;;;10.10;99.90;;;10.54;100.00;98865.44;5011045;28;20541;-81
2023/02/18 10:30:27;;;;;;;2.20;1.67;;;10.10;99.90;;;10.50;100.00;98857.09;5009629;28;20469;-82
2023/02/18 10:33:17;;;;;;;2.80;1.30;;;10.00;99.90;;;10.48;100.00;98856.44;5010787;28;20477;-83
2023/02/18 10:35:54;;;;;;;4.00;1.47;;;10.00;99.90;;;10.42;100.00;98859.72;5009169;28;20569;-84
2023/02/18 10:38:41;;;;;;;2.43;1.40;;;9.90;99.90;;;10.47;100.00;98867.91;5009710;28;20541;-84
2023/02/18 10:41:22;;;;;;;3.70;1.97;;;10.00;99.90;;;10.53;100.00;98854.16;5010230;28;20558;-84
2023/02/18 10:44:06;;;;;;;3.43;1.47;;;10.10;99.90;;;10.56;100.00;98860.84;5011498;28;20903;-84